Time;durP1;ratioP1;P1;durP2;ratioP2;P2;SDS_P1;SDS_P2;PMS_P1;PMS_P2;Temp;Humidity;BMP_temperature;BMP_pressure;BME280_temperature;BME280_humidity;BME280_pressure;Samples;Min_cycle;Max_cycle;Signal;HPM_P1;HPM_P2
2021/03/11 00:01:52;;;;;;;23.53;10.90;;;2.10;83.50;;;;;;5089830;28;20879;-68
2021/03/11 00:04:18;;;;;;;24.20;10.90;;;2.00;86.30;;;;;;5090161;28;20722;-67
2021/03/11 00:06:44;;;;;;;24.48;12.07;;;1.90;88.60;;;;;;5090339;28;20852;-69
2021/03/11 00:09:10;;;;;;;23.40;11.23;;;1.80;90.00;;;;;;5090278;28;20396;-68
2021/03/11 00:11:37;;;;;;;20.88;10.80;;;1.80;90.20;;;;;;5071711;28;20380;-67
2021/03/11 00:14:03;;;;;;;23.77;11.75;;;1.80;89.80;;;;;;5089094;28;20784;-70
2021/03/11 00:16:29;;;;;;;21.35;11.65;;;1.80;90.50;;;;;;5088537;28;20369;-67
2021/03/11 00:18:55;;;;;;;24.33;11.20;;;1.80;91.30;;;;;;5090283;28;20403;-66
2021/03/11 00:21:22;;;;;;;24.73;11.32;;;1.80;90.70;;;;;;5088792;28;20880;-68
2021/03/11 00:23:48;;;;;;;23.10;11.80;;;1.80;90.70;;;;;;5070566;28;20404;-67
2021/03/11 00:26:14;;;;;;;23.20;11.70;;;1.80;91.10;;;;;;5089504;28;20383;-68
2021/03/11 00:28:40;;;;;;;28.00;12.57;;;1.80;91.50;;;;;;5089587;28;20412;-68
2021/03/11 00:31:06;;;;;;;23.25;12.30;;;1.70;91.60;;;;;;5090439;28;20380;-67
2021/03/11 00:33:32;;;;;;;27.13;12.70;;;1.70;92.20;;;;;;5072885;28;20408;-68
2021/03/11 00:35:58;;;;;;;23.37;12.00;;;1.70;92.00;;;;;;5093992;28;20733;-68
2021/03/11 00:38:24;;;;;;;23.45;12.88;;;1.70;92.90;;;;;;5092882;28;20748;-67
2021/03/11 00:40:51;;;;;;;24.80;12.48;;;1.70;93.00;;;;;;5092832;28;20384;-68
2021/03/11 00:43:17;;;;;;;27.95;13.45;;;1.60;93.50;;;;;;5092489;28;20775;-68
2021/03/11 00:45:47;;;;;;;26.50;13.85;;;1.60;93.80;;;;;;5074167;28;20399;-68
2021/03/11 00:48:13;;;;;;;24.98;13.23;;;1.60;93.80;;;;;;5093447;28;20380;-67
2021/03/11 00:50:39;;;;;;;25.20;13.27;;;1.50;94.90;;;;;;5091524;28;20391;-67
2021/03/11 00:53:05;;;;;;;26.90;14.27;;;1.50;95.40;;;;;;5093581;28;20406;-67
2021/03/11 00:55:32;;;;;;;28.75;13.98;;;1.40;96.00;;;;;;5093699;28;20389;-66
2021/03/11 00:57:58;;;;;;;31.05;15.38;;;1.30;96.50;;;;;;5075227;28;20474;-66
2021/03/11 01:00:24;;;;;;;32.57;15.60;;;1.20;97.50;;;;;;5092968;28;20396;-68
2021/03/11 01:02:50;;;;;;;36.60;17.55;;;1.10;98.50;;;;;;5093028;28;20379;-70
2021/03/11 01:05:27;;;;;;;33.63;17.53;;;1.00;99.90;;;;;;5093348;28;20399;-66
2021/03/11 01:07:53;;;;;;;37.33;17.75;;;0.90;99.90;;;;;;5091080;28;20498;-67
2021/03/11 01:10:19;;;;;;;41.25;19.80;;;0.90;99.90;;;;;;5093332;28;20385;-66
2021/03/11 01:12:45;;;;;;;42.93;20.10;;;0.90;99.90;;;;;;5092765;28;20403;-67
2021/03/11 01:15:11;;;;;;;46.23;20.90;;;0.90;99.90;;;;;;5073920;28;20399;-68
2021/03/11 01:17:38;;;;;;;49.60;21.30;;;0.80;99.90;;;;;;5091978;28;20749;-69
2021/03/11 01:20:09;;;;;;;48.22;21.55;;;0.80;99.90;;;;;;5089159;28;20424;-67
2021/03/11 01:22:35;;;;;;;48.25;22.08;;;0.80;99.90;;;;;;5091457;28;20407;-68
2021/03/11 01:25:02;;;;;;;48.28;22.13;;;0.70;99.90;;;;;;5092630;28;20825;-66
2021/03/11 01:27:28;;;;;;;52.10;23.10;;;0.80;99.90;;;;;;5092748;28;20407;-68
2021/03/11 01:29:54;;;;;;;52.92;23.88;;;0.70;99.90;;;;;;5093043;28;20393;-68
2021/03/11 01:32:20;;;;;;;53.00;24.85;;;0.70;99.90;;;;;;5092692;28;20395;-66
2021/03/11 01:34:47;;;;;;;51.97;23.80;;;0.70;99.90;;;;;;5089931;28;20400;-67
2021/03/11 01:37:13;;;;;;;52.55;24.63;;;0.70;99.90;;;;;;5092696;28;20385;-66
2021/03/11 01:39:39;;;;;;;57.00;24.73;;;0.70;99.90;;;;;;5092036;28;20392;-66
2021/03/11 01:42:06;;;;;;;55.80;25.50;;;0.70;99.90;;;;;;5091484;28;20380;-65
2021/03/11 01:44:32;;;;;;;54.53;25.88;;;0.70;99.90;;;;;;5089487;28;20408;-64
2021/03/11 01:46:58;;;;;;;60.42;25.83;;;0.70;99.90;;;;;;5092624;28;20380;-64
2021/03/11 01:49:24;;;;;;;64.53;27.95;;;0.70;99.90;;;;;;5092580;28;20391;-65
2021/03/11 01:51:50;;;;;;;64.95;27.73;;;0.60;99.90;;;;;;5091241;28;20387;-66
2021/03/11 01:54:17;;;;;;;62.03;28.25;;;0.60;99.90;;;;;;5073614;28;20895;-66
2021/03/11 01:56:43;;;;;;;67.78;29.75;;;0.60;99.90;;;;;;5073153;28;20384;-66
2021/03/11 01:59:09;;;;;;;65.13;29.33;;;0.60;99.90;;;;;;5073556;28;21815;-67
2021/03/11 02:01:36;;;;;;;70.57;30.25;;;0.60;99.90;;;;;;5057372;28;20868;-68
2021/03/11 02:04:02;;;;;;;67.93;29.27;;;0.60;99.90;;;;;;5073710;28;20389;-68
2021/03/11 02:06:28;;;;;;;71.17;29.43;;;0.60;99.90;;;;;;5053496;28;20386;-65
2021/03/11 02:08:54;;;;;;;72.45;30.88;;;0.60;99.90;;;;;;5092610;28;20474;-65
2021/03/11 02:11:24;;;;;;;69.73;29.83;;;0.60;99.90;;;;;;5092344;28;20391;-65
2021/03/11 02:14:10;;;;;;;79.27;31.30;;;0.60;99.90;;;;;;5074117;28;20411;-66
2021/03/11 02:16:57;;;;;;;73.32;30.83;;;0.60;99.90;;;;;;5076822;28;20380;-68
2021/03/11 02:19:38;;;;;;;80.97;33.65;;;0.60;99.90;;;;;;5090727;28;20741;-66
2021/03/11 02:22:13;;;;;;;83.45;31.52;;;0.60;99.90;;;;;;5070491;28;20868;-68
2021/03/11 02:24:58;;;;;;;83.60;33.23;;;0.60;99.90;;;;;;5074204;28;20380;-65
2021/03/11 02:27:44;;;;;;;83.88;33.03;;;0.60;99.90;;;;;;5090893;28;20403;-66
2021/03/11 02:30:10;;;;;;;88.18;32.88;;;0.60;99.90;;;;;;5085641;28;20861;-69
2021/03/11 02:32:36;;;;;;;84.68;32.92;;;0.60;99.90;;;;;;5073837;28;20710;-65
2021/03/11 02:35:03;;;;;;;93.63;34.33;;;0.60;99.90;;;;;;5056613;28;20408;-66
2021/03/11 02:37:43;;;;;;;91.00;34.20;;;0.60;99.90;;;;;;5072453;28;22136;-67
2021/03/11 02:40:17;;;;;;;96.13;34.78;;;0.60;99.90;;;;;;5073226;28;20407;-67
2021/03/11 02:42:43;;;;;;;97.50;35.45;;;0.60;99.90;;;;;;5091396;28;20369;-66
2021/03/11 02:45:11;;;;;;;87.95;33.08;;;0.60;99.90;;;;;;5072935;28;20404;-66
2021/03/11 02:47:37;;;;;;;98.17;35.93;;;0.60;99.90;;;;;;5072945;28;20384;-65
2021/03/11 02:50:04;;;;;;;97.93;34.65;;;0.60;99.90;;;;;;5055546;28;20385;-67
2021/03/11 02:52:30;;;;;;;101.78;35.50;;;0.60;99.90;;;;;;5055806;28;20852;-65
2021/03/11 02:54:56;;;;;;;107.95;36.70;;;0.60;99.90;;;;;;5073057;28;20408;-65
2021/03/11 02:57:22;;;;;;;109.30;35.40;;;0.60;99.90;;;;;;5072692;28;20395;-65
2021/03/11 02:59:49;;;;;;;105.57;31.92;;;0.60;99.90;;;;;;5073291;28;20392;-66
2021/03/11 03:02:16;;;;;;;120.43;32.20;;;0.60;99.90;;;;;;5072929;28;20384;-66
2021/03/11 03:04:47;;;;;;;110.37;29.33;;;0.60;99.90;;;;;;5090423;28;20764;-67
2021/03/11 03:07:17;;;;;;;95.47;29.33;;;0.60;99.90;;;;;;5067648;28;20395;-66
2021/03/11 03:09:45;;;;;;;105.25;28.92;;;0.60;99.90;;;;;;5054049;28;20427;-65
2021/03/11 03:12:11;;;;;;;105.88;29.02;;;0.60;99.90;;;;;;5072746;28;20388;-66
2021/03/11 03:14:38;;;;;;;119.18;31.10;;;0.60;99.90;;;;;;5090155;28;20404;-65
2021/03/11 03:17:04;;;;;;;103.25;27.27;;;0.60;99.90;;;;;;5055513;28;20384;-66
2021/03/11 03:19:30;;;;;;;118.95;30.40;;;0.60;99.90;;;;;;5056373;28;20391;-68
2021/03/11 03:21:57;;;;;;;116.22;30.45;;;0.60;99.90;;;;;;5072991;28;20734;-66
2021/03/11 03:24:23;;;;;;;109.53;29.00;;;0.60;99.90;;;;;;5090644;28;20919;-67
2021/03/11 03:26:49;;;;;;;122.20;31.47;;;0.60;99.90;;;;;;5072117;28;20384;-65
2021/03/11 03:29:15;;;;;;;122.40;29.45;;;0.60;99.90;;;;;;5090734;28;20481;-65
2021/03/11 03:31:41;;;;;;;126.00;29.90;;;0.60;99.90;;;;;;5089929;28;20377;-66
2021/03/11 03:34:07;;;;;;;120.33;30.87;;;0.60;99.90;;;;;;5090854;28;20404;-68
2021/03/11 03:36:34;;;;;;;128.23;31.42;;;0.60;99.90;;;;;;5090670;28;20388;-65
2021/03/11 03:39:00;;;;;;;149.32;33.33;;;0.60;99.90;;;;;;5090410;28;20384;-64
2021/03/11 03:41:26;;;;;;;137.02;32.13;;;0.60;99.90;;;;;;5090836;28;20387;-65
2021/03/11 03:43:53;;;;;;;133.53;31.67;;;0.60;99.90;;;;;;5071702;28;20744;-66
2021/03/11 03:46:23;;;;;;;144.13;34.20;;;0.60;99.90;;;;;;5071945;28;20384;-65
2021/03/11 03:48:55;;;;;;;142.82;32.75;;;0.60;99.90;;;;;;5088768;28;20389;-65
2021/03/11 03:51:25;;;;;;;130.82;30.95;;;0.60;99.90;;;;;;5072912;28;20422;-64
2021/03/11 03:53:53;;;;;;;135.75;31.25;;;0.60;99.90;;;;;;5056681;28;20400;-64
2021/03/11 03:56:24;;;;;;;;;;;0.60;99.90;;;;;;5073231;28;20372;-66
2021/03/11 03:58:51;;;;;;;135.40;29.85;;;0.70;99.90;;;;;;5072833;28;20875;-66
2021/03/11 04:01:17;;;;;;;128.48;29.85;;;0.60;99.90;;;;;;5072658;28;20373;-67
2021/03/11 04:03:44;;;;;;;136.38;32.85;;;0.70;99.90;;;;;;5072062;28;20391;-67
2021/03/11 04:06:10;;;;;;;139.57;33.50;;;0.60;99.90;;;;;;5071353;28;20388;-66
2021/03/11 04:08:36;;;;;;;134.15;32.47;;;0.60;99.90;;;;;;5073600;28;20384;-67
2021/03/11 04:11:02;;;;;;;151.73;34.58;;;0.60;99.90;;;;;;5058585;28;20411;-64
2021/03/11 04:13:30;;;;;;;149.07;34.65;;;0.60;99.90;;;;;;5075298;28;20728;-69
2021/03/11 04:15:56;;;;;;;133.97;33.73;;;0.60;99.90;;;;;;5092583;28;20407;-68
2021/03/11 04:18:22;;;;;;;150.60;35.47;;;0.70;99.90;;;;;;5075151;28;20395;-67
2021/03/11 04:20:48;;;;;;;145.87;37.10;;;0.70;99.90;;;;;;5075240;28;20748;-68
2021/03/11 04:23:15;;;;;;;150.15;37.65;;;0.70;99.90;;;;;;5076444;28;20732;-74
2021/03/11 04:25:41;;;;;;;151.77;38.22;;;0.70;99.90;;;;;;5075276;28;20387;-73
2021/03/11 04:28:07;;;;;;;155.13;38.35;;;0.60;99.90;;;;;;5073869;28;20400;-72
2021/03/11 04:30:33;;;;;;;149.50;38.13;;;0.70;99.90;;;;;;5059393;28;20385;-72
2021/03/11 04:32:59;;;;;;;148.20;37.50;;;0.70;99.90;;;;;;5075351;28;20385;-70
2021/03/11 04:35:26;;;;;;;145.63;38.53;;;0.70;99.90;;;;;;5075234;28;20396;-69
2021/03/11 04:37:53;;;;;;;153.52;39.28;;;0.70;99.90;;;;;;5075608;28;20411;-70
2021/03/11 04:40:19;;;;;;;140.63;37.28;;;0.70;99.90;;;;;;5059274;28;20380;-67
2021/03/11 04:42:45;;;;;;;146.55;39.70;;;0.70;99.90;;;;;;5058585;28;20391;-68
2021/03/11 04:45:11;;;;;;;140.45;39.10;;;0.70;99.90;;;;;;5073997;28;20405;-67
2021/03/11 04:47:37;;;;;;;146.07;39.55;;;0.70;99.90;;;;;;5075995;28;20743;-72
2021/03/11 04:50:05;;;;;;;131.05;37.20;;;0.70;99.90;;;;;;5057722;28;20388;-74
2021/03/11 04:52:31;;;;;;;126.95;37.38;;;0.70;99.90;;;;;;5075613;28;20384;-74
2021/03/11 04:54:58;;;;;;;128.57;38.13;;;0.70;99.90;;;;;;5075769;28;20423;-73
2021/03/11 04:57:26;;;;;;;132.35;37.83;;;0.70;99.90;;;;;;5075246;28;20392;-73
2021/03/11 04:59:53;;;;;;;120.97;36.05;;;0.70;99.90;;;;;;5093457;28;20399;-71
2021/03/11 05:02:19;;;;;;;124.93;38.15;;;0.70;99.90;;;;;;5057072;28;20376;-67
2021/03/11 05:04:45;;;;;;;118.95;35.63;;;0.70;99.90;;;;;;5073819;28;21010;-69
2021/03/11 05:07:15;;;;;;;114.47;34.85;;;0.70;99.90;;;;;;5056003;28;20388;-70
2021/03/11 05:09:41;;;;;;;107.53;33.88;;;0.70;99.90;;;;;;5089951;28;20887;-72
2021/03/11 05:12:07;;;;;;;119.90;36.33;;;0.70;99.90;;;;;;5091855;28;20389;-72
2021/03/11 05:14:34;;;;;;;106.28;33.75;;;0.70;99.90;;;;;;5072802;28;20416;-72
2021/03/11 05:17:00;;;;;;;99.43;30.43;;;0.70;99.90;;;;;;5090693;28;20381;-72
2021/03/11 05:19:26;;;;;;;102.38;32.95;;;0.70;99.90;;;;;;5090688;28;20937;-74
2021/03/11 05:21:52;;;;;;;86.75;27.10;;;0.70;99.90;;;;;;5091549;28;20468;-71
2021/03/11 05:24:18;;;;;;;103.20;32.38;;;0.70;99.90;;;;;;5090732;28;20388;-68
2021/03/11 05:26:44;;;;;;;95.45;31.67;;;0.70;99.90;;;;;;5073173;28;20377;-69
2021/03/11 05:29:10;;;;;;;93.25;31.75;;;0.70;99.90;;;;;;5090588;28;20404;-69
2021/03/11 05:31:37;;;;;;;98.03;32.08;;;0.70;99.90;;;;;;5090912;28;20852;-71
2021/03/11 05:34:03;;;;;;;85.95;30.15;;;0.80;99.90;;;;;;5090880;28;20870;-71
2021/03/11 05:36:29;;;;;;;85.75;28.67;;;0.80;99.90;;;;;;5090327;28;20372;-71
2021/03/11 05:38:55;;;;;;;81.10;28.23;;;0.70;99.90;;;;;;5090801;28;20396;-72
2021/03/11 05:41:22;;;;;;;78.00;27.88;;;0.80;99.90;;;;;;5090791;28;20369;-72
2021/03/11 05:43:50;;;;;;;75.35;26.13;;;0.80;99.90;;;;;;5072033;28;20753;-72
2021/03/11 05:46:17;;;;;;;82.00;28.08;;;0.80;99.90;;;;;;5090111;28;20380;-70
2021/03/11 05:48:43;;;;;;;72.67;27.10;;;0.80;99.90;;;;;;5071951;28;20890;-69
2021/03/11 05:51:09;;;;;;;81.13;28.02;;;0.80;99.90;;;;;;5072687;28;20879;-68
2021/03/11 05:53:36;;;;;;;74.72;27.10;;;0.80;99.90;;;;;;5072613;28;20403;-66
2021/03/11 05:56:03;;;;;;;77.47;26.95;;;0.90;99.90;;;;;;5090653;28;20883;-66
2021/03/11 05:58:29;;;;;;;78.13;26.90;;;0.80;99.90;;;;;;5090916;28;20385;-66
2021/03/11 06:00:55;;;;;;;68.28;25.42;;;0.80;99.90;;;;;;5090081;28;20397;-67
2021/03/11 06:03:22;;;;;;;67.93;24.50;;;0.80;99.90;;;;;;5090420;28;20871;-67
2021/03/11 06:05:48;;;;;;;59.75;22.48;;;0.90;99.90;;;;;;5055752;28;20392;-68
2021/03/11 06:08:15;;;;;;;53.90;20.23;;;0.90;99.90;;;;;;5072095;28;20399;-69
2021/03/11 06:10:41;;;;;;;58.78;23.15;;;0.90;99.90;;;;;;5072110;28;20530;-70
2021/03/11 06:13:07;;;;;;;60.90;24.17;;;0.90;99.90;;;;;;5072141;28;20369;-71
2021/03/11 06:15:37;;;;;;;53.63;21.65;;;1.00;99.90;;;;;;5071159;28;21151;-73
2021/03/11 06:18:07;;;;;;;57.70;21.77;;;1.00;99.90;;;;;;5089305;28;20385;-73
2021/03/11 06:20:34;;;;;;;59.67;23.42;;;1.00;99.90;;;;;;5071239;28;20376;-73
2021/03/11 06:23:00;;;;;;;56.10;22.17;;;1.00;99.90;;;;;;5089378;28;20373;-71
2021/03/11 06:25:27;;;;;;;55.92;22.65;;;1.00;99.90;;;;;;5090286;28;20472;-72
2021/03/11 06:27:53;;;;;;;52.08;21.95;;;1.00;99.90;;;;;;5089994;28;20400;-71
2021/03/11 06:30:41;;;;;;;53.53;21.77;;;1.00;99.90;;;;;;5088928;28;20959;-70
2021/03/11 06:33:07;;;;;;;53.53;21.80;;;1.00;99.90;;;;;;5071098;28;21189;-70
2021/03/11 06:35:34;;;;;;;57.70;22.92;;;1.00;99.90;;;;;;5088179;28;20408;-71
2021/03/11 06:38:01;;;;;;;53.92;21.38;;;1.00;99.90;;;;;;5087642;28;20381;-72
2021/03/11 06:40:28;;;;;;;51.53;20.33;;;1.10;99.90;;;;;;5089287;28;20388;-72
2021/03/11 06:43:11;;;;;;;48.80;19.90;;;1.10;99.90;;;;;;5071138;28;20376;-71
2021/03/11 06:45:38;;;;;;;48.63;20.10;;;1.10;99.90;;;;;;5070615;28;20411;-74
2021/03/11 06:48:19;;;;;;;45.13;19.20;;;1.10;99.90;;;;;;5089073;28;20748;-74
2021/03/11 06:50:45;;;;;;;50.30;19.23;;;1.10;99.90;;;;;;5087509;28;20388;-73
2021/03/11 06:53:12;;;;;;;49.03;19.45;;;1.10;99.90;;;;;;5089160;28;20399;-72
2021/03/11 06:55:38;;;;;;;48.00;19.15;;;1.10;99.90;;;;;;5071155;28;20924;-73
2021/03/11 06:58:24;;;;;;;48.17;19.15;;;1.20;99.90;;;;;;5089075;28;20733;-75
2021/03/11 07:01:04;;;;;;;40.65;17.80;;;1.20;99.90;;;;;;5088334;28;20773;-72
2021/03/11 07:03:37;;;;;;;45.45;19.00;;;1.20;99.90;;;;;;5086974;28;20911;-74
2021/03/11 07:06:04;;;;;;;40.13;15.93;;;1.20;99.90;;;;;;5072284;28;20744;-77
2021/03/11 07:08:30;;;;;;;42.28;17.52;;;1.20;99.90;;;;;;5088635;28;20722;-80
2021/03/11 07:11:05;;;;;;;45.13;17.67;;;1.30;99.90;;;;;;5089139;28;20741;-77
2021/03/11 07:13:41;;;;;;;46.17;19.25;;;1.20;99.90;;;;;;5091044;28;20384;-77
2021/03/11 07:16:37;;;;;;;46.78;19.10;;;1.30;99.90;;;;;;5095315;28;20408;-76
2021/03/11 07:19:16;;;;;;;45.45;18.45;;;1.20;99.90;;;;;;5089242;28;20384;-72
2021/03/11 07:21:46;;;;;;;45.55;18.30;;;1.20;99.90;;;;;;5075375;28;20400;-73
2021/03/11 07:24:30;;;;;;;46.85;18.83;;;1.20;99.90;;;;;;5091523;28;20447;-79
2021/03/11 07:26:57;;;;;;;46.25;18.48;;;1.30;99.90;;;;;;5084557;28;20396;-76
2021/03/11 07:29:24;;;;;;;50.20;19.42;;;1.30;99.90;;;;;;5104848;28;20775;-76
2021/03/11 07:31:54;;;;;;;52.03;20.02;;;1.40;99.90;;;;;;5098102;28;20396;-77
2021/03/11 07:34:25;;;;;;;48.20;18.45;;;1.30;99.90;;;;;;5072167;28;20389;-79
2021/03/11 07:36:52;;;;;;;52.83;19.45;;;1.30;99.90;;;;;;5072664;28;20389;-78
2021/03/11 07:39:18;;;;;;;51.20;19.70;;;1.40;99.90;;;;;;5072609;28;20883;-77
2021/03/11 07:41:44;;;;;;;47.37;18.60;;;1.30;99.90;;;;;;5071254;28;20869;-77
2021/03/11 07:44:10;;;;;;;51.30;18.33;;;1.40;99.90;;;;;;5077673;28;20394;-82
2021/03/11 07:46:36;;;;;;;52.33;18.35;;;1.40;99.90;;;;;;5076900;28;20388;-76
2021/03/11 07:49:02;;;;;;;52.70;19.17;;;1.40;99.90;;;;;;5076814;28;20395;-74
2021/03/11 07:51:29;;;;;;;49.40;18.45;;;1.30;99.90;;;;;;5071817;28;20384;-79
2021/03/11 07:53:56;;;;;;;46.65;18.27;;;1.40;99.90;;;;;;5079784;28;20878;-72
2021/03/11 07:56:22;;;;;;;50.35;18.60;;;1.30;99.90;;;;;;5094257;28;20427;-71
2021/03/11 07:58:48;;;;;;;51.17;18.58;;;1.30;99.90;;;;;;5095476;28;20399;-81
2021/03/11 08:01:14;;;;;;;50.13;18.25;;;1.40;99.90;;;;;;5095638;28;20384;-78
2021/03/11 08:03:44;;;;;;;45.63;16.98;;;1.40;99.90;;;;;;5077020;28;20844;-69
2021/03/11 08:06:26;;;;;;;49.30;17.67;;;1.30;99.90;;;;;;5070694;28;20396;-77
2021/03/11 08:08:52;;;;;;;47.97;16.95;;;1.40;99.90;;;;;;5057381;28;20388;-68
2021/03/11 08:11:38;;;;;;;44.60;15.90;;;1.30;99.90;;;;;;5093330;28;20384;-69
2021/03/11 08:14:23;;;;;;;39.43;14.47;;;1.30;99.90;;;;;;5091754;28;20903;-69
2021/03/11 08:16:50;;;;;;;37.72;14.45;;;1.30;99.90;;;;;;5074691;28;20392;-69
2021/03/11 08:19:34;;;;;;;39.72;15.27;;;1.30;99.90;;;;;;5073137;28;20392;-71
2021/03/11 08:22:01;;;;;;;40.95;15.25;;;1.30;99.90;;;;;;5091038;28;20868;-69
2021/03/11 08:24:46;;;;;;;40.65;14.38;;;1.30;99.90;;;;;;5075728;28;20879;-71
2021/03/11 08:27:30;;;;;;;38.45;14.10;;;1.30;99.90;;;;;;5075066;28;20399;-67
2021/03/11 08:30:00;;;;;;;32.53;12.10;;;1.30;99.90;;;;;;5092209;28;20396;-68
2021/03/11 08:32:56;;;;;;;36.10;14.00;;;1.30;99.90;;;;;;5076499;28;20373;-69
2021/03/11 08:35:28;;;;;;;31.13;12.57;;;1.20;99.90;;;;;;5078892;28;20416;-67
2021/03/11 08:38:00;;;;;;;32.47;12.70;;;1.30;99.90;;;;;;5091459;28;20393;-66
2021/03/11 08:40:38;;;;;;;30.43;12.07;;;1.40;99.90;;;;;;5077304;28;20392;-66
2021/03/11 08:43:05;;;;;;;31.85;12.30;;;1.40;99.90;;;;;;5074811;28;20392;-66
2021/03/11 08:45:51;;;;;;;33.22;12.77;;;1.50;99.90;;;;;;5073471;28;20385;-66
2021/03/11 08:48:20;;;;;;;;;;;1.50;99.90;;;;;;5091047;28;20391;-66
2021/03/11 08:50:47;;;;;;;;;;;1.60;99.90;;;;;;5083138;28;19904;-66
2021/03/11 08:53:32;;;;;;;;;;;1.60;99.90;;;;;;5079446;28;19908;-66
2021/03/11 08:55:58;;;;;;;;;;;1.60;99.90;;;;;;5094076;28;19912;-71
2021/03/11 08:58:24;;;;;;;;;;;1.50;99.90;;;;;;5094664;28;19957;-71
2021/03/11 09:00:57;;;;;;;;;;;1.50;99.90;;;;;;5094227;28;20349;-71
2021/03/11 09:03:38;;;;;;;;;;;1.50;99.90;;;;;;5093754;28;19912;-72
2021/03/11 09:06:06;;;;;;;;;;;1.40;99.90;;;;;;5092493;28;20284;-72
2021/03/11 09:08:33;;;;;;;;;;;1.40;99.90;;;;;;5094136;28;19919;-69
2021/03/11 09:11:08;;;;;;;;;;;1.50;99.90;;;;;;5094403;28;19915;-73
2021/03/11 09:13:34;;;;;;;;;;;1.50;99.90;;;;;;5093935;28;20283;-72
2021/03/11 09:16:00;;;;;;;;;;;1.50;99.90;;;;;;5092724;28;19924;-72
2021/03/11 09:18:27;;;;;;;;;;;1.50;99.90;;;;;;5078016;28;19912;-71
2021/03/11 09:20:53;;;;;;;;;;;1.50;99.90;;;;;;5093056;28;19956;-70
2021/03/11 09:23:19;;;;;;;;;;;1.60;99.90;;;;;;5090450;28;19935;-72
2021/03/11 09:25:45;;;;;;;;;;;1.60;99.90;;;;;;5092325;28;20368;-71
2021/03/11 09:28:11;;;;;;;;;;;1.60;99.90;;;;;;5093015;28;19926;-72
2021/03/11 09:30:38;;;;;;;;;;;1.60;99.90;;;;;;5076334;28;19904;-73
2021/03/11 09:33:07;;;;;;;;;;;1.60;99.90;;;;;;5094024;28;19912;-71
2021/03/11 09:35:33;;;;;;;;;;;1.60;99.90;;;;;;5092972;28;19927;-72
2021/03/11 09:38:00;;;;;;;;;;;1.60;99.90;;;;;;5093267;28;19912;-70
2021/03/11 09:40:36;;;;;;;;;;;1.60;99.90;;;;;;5093007;28;19923;-71
2021/03/11 09:43:41;;;;;;;;;;;1.70;99.90;;;;;;5075818;28;19915;-70
2021/03/11 09:46:08;;;;;;;;;;;1.70;99.90;;;;;;5008964;28;19909;-71
2021/03/11 09:48:39;;;;;;;;;;;1.60;99.90;;;;;;4999513;28;19921;-68
2021/03/11 09:51:05;;;;;;;;;;;1.70;99.90;;;;;;5044586;28;19908;-71
2021/03/11 09:53:41;;;;;;;;;;;1.70;99.90;;;;;;5090770;28;19904;-70
2021/03/11 09:56:17;;;;;;;;;;;1.70;99.90;;;;;;5093955;28;19912;-66
2021/03/11 09:58:44;;;;;;;;;;;1.70;99.90;;;;;;5091970;28;19927;-67
2021/03/11 10:01:10;;;;;;;;;;;1.70;99.90;;;;;;5093461;28;19912;-67
2021/03/11 10:03:36;;;;;;;;;;;1.70;99.90;;;;;;5083284;28;19916;-68
2021/03/11 10:06:03;;;;;;;;;;;1.80;99.90;;;;;;5079855;28;20276;-69
2021/03/11 10:08:39;;;;;;;;;;;1.80;99.90;;;;;;5092869;28;19908;-70
2021/03/11 10:11:09;;;;;;;;;;;1.80;99.90;;;;;;5078503;28;19919;-69
2021/03/11 10:13:42;;;;;;;;;;;1.80;99.90;;;;;;5092924;28;19907;-70
2021/03/11 10:16:08;;;;;;;;;;;1.80;99.90;;;;;;5089708;28;19920;-68
2021/03/11 10:18:35;;;;;;;;;;;1.90;99.90;;;;;;5090791;28;19913;-71
2021/03/11 10:21:01;;;;;;;;;;;1.90;99.90;;;;;;5081335;28;19911;-70
2021/03/11 10:23:27;;;;;;;;;;;1.80;99.90;;;;;;5092139;28;19969;-70
2021/03/11 10:26:11;;;;;;;;;;;1.90;99.90;;;;;;5092372;28;19915;-76
2021/03/11 10:28:38;;;;;;;;;;;1.90;99.90;;;;;;5092070;28;20396;-75
2021/03/11 10:31:07;;;;;;;;;;;1.90;99.90;;;;;;5092998;28;19916;-76
2021/03/11 10:33:33;;;;;;;;;;;1.90;99.90;;;;;;5091855;28;19919;-73
2021/03/11 10:36:28;;;;;;;;;;;1.90;99.90;;;;;;5084681;28;20376;-71
2021/03/11 10:39:04;;;;;;;;;;;2.00;99.90;;;;;;5068675;28;19916;-75
2021/03/11 10:41:30;;;;;;;;;;;2.00;99.90;;;;;;5078043;28;20384;-71
2021/03/11 10:44:14;;;;;;;;;;;2.00;99.90;;;;;;5069994;28;19912;-76
2021/03/11 10:46:43;;;;;;;;;;;1.90;99.90;;;;;;5090921;28;19912;-75
2021/03/11 10:49:11;;;;;;;;;;;1.80;99.90;;;;;;5090669;28;19919;-74
2021/03/11 10:51:37;;;;;;;;;;;1.70;99.90;;;;;;5092185;28;19915;-76
2021/03/11 10:54:03;;;;;;;;;;;1.70;99.90;;;;;;5091047;28;19912;-74
2021/03/11 10:56:29;;;;;;;;;;;1.70;99.90;;;;;;5078719;28;19920;-74
2021/03/11 10:59:14;;;;;;;;;;;1.70;99.90;;;;;;5091334;28;20269;-71
2021/03/11 11:01:40;;;;;;;;;;;1.70;99.90;;;;;;5090607;28;19916;-72
2021/03/11 11:04:06;;;;;;;;;;;1.60;99.90;;;;;;5092029;28;19915;-71
2021/03/11 11:06:32;;;;;;;;;;;1.50;99.90;;;;;;5092284;28;19908;-72
2021/03/11 11:08:58;;;;;;;;;;;1.50;99.90;;;;;;5092876;28;20314;-74
2021/03/11 11:11:24;;;;;;;;;;;1.40;99.90;;;;;;5076034;28;20283;-72
2021/03/11 11:13:50;;;;;;;;;;;1.40;99.90;;;;;;5092114;28;19923;-73
2021/03/11 11:16:16;;;;;;;;;;;1.40;99.90;;;;;;5090858;28;19915;-74
2021/03/11 11:18:42;;;;;;;;;;;1.40;99.90;;;;;;5092021;28;19934;-77
2021/03/11 11:21:08;;;;;;;;;;;1.50;99.90;;;;;;5092647;28;19908;-74
2021/03/11 11:23:34;;;;;;;;;;;1.50;99.90;;;;;;5092141;28;19931;-73
2021/03/11 11:26:00;;;;;;;;;;;1.50;99.90;;;;;;5087808;28;19916;-75
2021/03/11 11:28:26;;;;;;;;;;;1.40;99.90;;;;;;5069300;28;19943;-76
2021/03/11 11:30:52;;;;;;;;;;;1.50;99.90;;;;;;5089134;28;20404;-76
2021/03/11 11:33:18;;;;;;;;;;;1.50;99.90;;;;;;5091073;28;19908;-76
2021/03/11 11:35:44;;;;;;;;;;;1.50;99.90;;;;;;5082350;28;19966;-75
2021/03/11 11:38:10;;;;;;;;;;;1.40;99.90;;;;;;5086669;28;19962;-69
2021/03/11 11:40:36;;;;;;;;;;;1.50;99.90;;;;;;5088896;28;20341;-73
2021/03/11 11:43:02;;;;;;;;;;;1.50;99.90;;;;;;5089896;28;20014;-74
2021/03/11 11:45:30;;;;;;;;;;;1.40;99.90;;;;;;5091103;28;20002;-77
2021/03/11 11:47:56;;;;;;;;;;;1.30;99.90;;;;;;5089317;28;19908;-75
2021/03/11 11:50:21;;;;;;;;;;;1.50;99.90;;;;;;5074467;28;19912;-74
2021/03/11 11:52:47;;;;;;;;;;;1.40;99.90;;;;;;5085430;28;19919;-76
2021/03/11 11:55:13;;;;;;;;;;;1.40;99.90;;;;;;5087860;28;19963;-73
2021/03/11 11:57:39;;;;;;;;;;;1.40;99.90;;;;;;5092251;28;20260;-75
2021/03/11 12:00:06;;;;;;;;;;;1.20;99.90;;;;;;5088585;28;20288;-73
2021/03/11 12:02:32;;;;;;;;;;;1.10;99.90;;;;;;5092554;28;20275;-74
2021/03/11 12:04:58;;;;;;;;;;;1.20;99.90;;;;;;5092166;28;19991;-74
2021/03/11 12:07:24;;;;;;;;;;;1.20;99.90;;;;;;5068621;28;19931;-72
2021/03/11 12:09:52;;;;;;;;;;;1.30;99.90;;;;;;5087663;28;19912;-75
2021/03/11 12:12:18;;;;;;;;;;;1.50;99.90;;;;;;5085587;28;19934;-77
2021/03/11 12:14:44;;;;;;;;;;;1.50;99.90;;;;;;5087990;28;19912;-73
2021/03/11 12:17:10;;;;;;;;;;;1.60;99.90;;;;;;5086329;28;19921;-75
2021/03/11 12:19:36;;;;;;;;;;;1.70;99.90;;;;;;5089291;28;19908;-73
2021/03/11 12:22:02;;;;;;;;;;;1.70;99.90;;;;;;5091643;28;19916;-74
2021/03/11 12:24:28;;;;;;;;;;;1.80;99.90;;;;;;5070646;28;20345;-79
2021/03/11 12:26:54;;;;;;;;;;;1.90;99.90;;;;;;5091456;28;19916;-79
2021/03/11 12:29:20;;;;;;;;;;;1.90;99.90;;;;;;5092642;28;19916;-75
2021/03/11 12:31:46;;;;;;;;;;;2.00;99.90;;;;;;5096287;28;19908;-73
2021/03/11 12:34:12;;;;;;;;;;;2.00;99.90;;;;;;5096342;28;19907;-75
2021/03/11 12:36:38;;;;;;;;;;;2.10;99.90;;;;;;5095833;28;19916;-72
2021/03/11 12:39:05;;;;;;;;;;;2.10;99.90;;;;;;5096154;28;19912;-72
2021/03/11 12:41:31;;;;;;;;;;;2.20;99.90;;;;;;5077282;28;19923;-73
2021/03/11 12:43:56;;;;;;;;;;;2.30;99.90;;;;;;5095658;28;19908;-71
2021/03/11 12:46:22;;;;;;;;;;;2.30;99.90;;;;;;5077384;28;19912;-73
2021/03/11 12:48:48;;;;;;;;;;;2.40;99.90;;;;;;5093168;28;19912;-73
2021/03/11 12:51:14;;;;;;;;;;;2.50;99.90;;;;;;5095421;28;20497;-74
2021/03/11 12:53:40;;;;;;;;;;;2.50;99.90;;;;;;5094362;28;20383;-74
2021/03/11 12:56:06;;;;;;;;;;;2.60;99.90;;;;;;5095400;28;20015;-74
2021/03/11 12:58:32;;;;;;;;;;;2.70;99.90;;;;;;5095773;28;19955;-72
2021/03/11 13:00:58;;;;;;;;;;;2.80;99.90;;;;;;5095400;28;20431;-72
2021/03/11 13:03:24;;;;;;;;;;;2.90;99.90;;;;;;5095099;28;19915;-73
2021/03/11 13:05:52;;;;;;;;;;;2.90;99.90;;;;;;5094742;28;19923;-75
2021/03/11 13:08:18;;;;;;;;;;;3.00;99.90;;;;;;5094497;28;19923;-75
2021/03/11 13:10:44;;;;;;;;;;;3.10;99.90;;;;;;5094250;28;19967;-74
2021/03/11 13:13:12;;;;;;;;;;;3.10;99.90;;;;;;5095574;28;19904;-78
2021/03/11 13:15:38;;;;;;;;;;;3.20;99.90;;;;;;5075451;28;19916;-77
2021/03/11 13:18:04;;;;;;;;;;;3.30;99.90;;;;;;5094766;28;19939;-75